Time;durP1;ratioP1;P1;durP2;ratioP2;P2;SDS_P1;SDS_P2;PMS_P1;PMS_P2;Temp;Humidity;BMP_temperature;BMP_pressure;BME280_temperature;BME280_humidity;BME280_pressure;Samples;Min_cycle;Max_cycle;Signal;HPM_P1;HPM_P2
2023/06/09 00:01:19;;;;;;;;;;;12.80;74.50;;;;;;4944466;28;19962;-70
2023/06/09 00:03:48;;;;;;;;;;;12.70;75.10;;;;;;4945687;28;19930;-70
2023/06/09 00:06:16;;;;;;;;;;;12.60;75.30;;;;;;4955229;28;20042;-70
2023/06/09 00:08:43;;;;;;;;;;;12.60;76.00;;;;;;4927505;28;20013;-70
2023/06/09 00:11:10;;;;;;;;;;;12.50;77.00;;;;;;4941339;28;19927;-70
2023/06/09 00:13:36;;;;;;;;;;;12.50;76.60;;;;;;4954391;28;20016;-70
2023/06/09 00:16:03;;;;;;;;;;;12.40;75.80;;;;;;4929825;28;19930;-70
2023/06/09 00:18:30;;;;;;;;;;;12.40;76.20;;;;;;4953947;28;19970;-70
2023/06/09 00:20:59;;;;;;;;;;;12.30;77.20;;;;;;4945753;28;20627;-71
2023/06/09 00:23:28;;;;;;;;;;;12.20;77.70;;;;;;4941377;28;19958;-70
2023/06/09 00:25:55;;;;;;;;;;;12.20;78.20;;;;;;4955479;28;20021;-71
2023/06/09 00:28:21;;;;;;;;;;;12.20;78.10;;;;;;4951019;28;20584;-70
2023/06/09 00:30:48;;;;;;;;;;;12.20;78.60;;;;;;4946626;28;20396;-70
2023/06/09 00:33:15;;;;;;;;;;;12.20;78.60;;;;;;4946245;28;19981;-71
2023/06/09 00:35:41;;;;;;;;;;;12.20;78.10;;;;;;4944134;28;20631;-70
2023/06/09 00:38:08;;;;;;;;;;;12.20;78.70;;;;;;4929572;28;20021;-70
2023/06/09 00:40:35;;;;;;;;;;;12.10;78.40;;;;;;4943099;28;19937;-70
2023/06/09 00:43:04;;;;;;;;;;;12.10;79.70;;;;;;4955419;28;19993;-70
2023/06/09 00:45:31;;;;;;;;;;;12.20;80.00;;;;;;4952962;28;19966;-70
2023/06/09 00:47:57;;;;;;;;;;;12.20;80.40;;;;;;4927658;28;20029;-70
2023/06/09 00:50:24;;;;;;;;;;;12.10;79.70;;;;;;4943388;28;21921;-70
2023/06/09 00:52:52;;;;;;;;;;;12.10;79.90;;;;;;4931785;28;19930;-71
2023/06/09 00:55:19;;;;;;;;;;;12.10;80.30;;;;;;4944615;28;19934;-70
2023/06/09 00:57:47;;;;;;;;;;;12.00;78.80;;;;;;4943242;28;19930;-71
2023/06/09 01:00:16;;;;;;;;;;;12.10;80.00;;;;;;4925094;28;20025;-70
2023/06/09 01:02:43;;;;;;;;;;;12.00;78.50;;;;;;4943900;28;19938;-70
2023/06/09 01:05:12;;;;;;;;;;;12.00;78.80;;;;;;4925529;28;19926;-71
2023/06/09 01:07:51;;;;;;;;;;;12.00;78.80;;;;;;4941693;28;19993;-71
2023/06/09 01:10:17;;;;;;;;;;;12.00;78.60;;;;;;4942981;28;20368;-70
2023/06/09 01:12:59;;;;;;;;;;;12.00;79.10;;;;;;4959068;28;19930;-70
2023/06/09 01:15:28;;;;;;;;;;;11.90;79.30;;;;;;4942718;28;22015;-70
2023/06/09 01:17:56;;;;;;;;;;;11.90;79.50;;;;;;4957448;28;20283;-71
2023/06/09 01:20:35;;;;;;;;;;;11.90;79.20;;;;;;4942305;28;19931;-70
2023/06/09 01:23:08;;;;;;;;;;;11.90;79.30;;;;;;4939995;28;19930;-70
2023/06/09 01:25:37;;;;;;;;;;;11.80;78.90;;;;;;4944069;28;20637;-70
2023/06/09 01:28:06;;;;;;;;;;;11.80;78.80;;;;;;4944226;28;19931;-70
2023/06/09 01:30:33;;;;;;;;;;;11.70;79.40;;;;;;4944258;28;20432;-70
2023/06/09 01:33:02;;;;;;;;;;;11.80;79.00;;;;;;4942640;28;19930;-70
2023/06/09 01:35:29;;;;;;;;;;;11.70;79.40;;;;;;4941362;28;19931;-70
2023/06/09 01:37:56;;;;;;;;;;;11.70;79.40;;;;;;4943004;28;19985;-70
2023/06/09 01:40:23;;;;;;;;;;;11.60;78.30;;;;;;4925855;29;20013;-71
2023/06/09 01:42:50;;;;;;;;;;;11.60;78.20;;;;;;4945246;28;20009;-71
2023/06/09 01:45:16;;;;;;;;;;;11.60;78.50;;;;;;4943869;28;19941;-70
2023/06/09 01:47:43;;;;;;;;;;;11.50;78.70;;;;;;4957777;28;19937;-70
2023/06/09 01:50:16;;;;;;;;;;;11.50;78.80;;;;;;4943341;28;19965;-71
2023/06/09 01:52:46;;;;;;;;;;;11.50;79.30;;;;;;4941010;28;19930;-70
2023/06/09 01:55:14;;;;;;;;;;;11.50;78.50;;;;;;4920456;28;19946;-70
2023/06/09 01:57:49;;;;;;;;;;;11.40;79.10;;;;;;4944065;28;19962;-71
2023/06/09 02:00:16;;;;;;;;;;;11.40;79.80;;;;;;4943467;28;19941;-70
2023/06/09 02:02:46;;;;;;;;;;;11.30;79.60;;;;;;4941423;28;19962;-70
2023/06/09 02:05:15;;;;;;;;;;;11.20;80.10;;;;;;4944089;28;19930;-70
2023/06/09 02:07:44;;;;;;;;;;;11.20;80.10;;;;;;4949122;28;19930;-70
2023/06/09 02:10:11;;;;;;;;;;;11.10;80.20;;;;;;4944663;28;20729;-71
2023/06/09 02:12:38;;;;;;;;;;;11.20;79.90;;;;;;4943187;28;20017;-71
2023/06/09 02:15:05;;;;;;;;;;;11.10;80.20;;;;;;4943270;28;19934;-70
2023/06/09 02:17:33;;;;;;;;;;;11.00;80.50;;;;;;4926774;29;19972;-70
2023/06/09 02:20:00;;;;;;;;;;;11.00;79.40;;;;;;4927615;28;19934;-71
2023/06/09 02:22:27;;;;;;;;;;;10.90;80.10;;;;;;4942023;28;20019;-70
2023/06/09 02:24:55;;;;;;;;;;;10.90;79.50;;;;;;4943771;28;19930;-71
2023/06/09 02:27:22;;;;;;;;;;;10.80;79.30;;;;;;4944037;28;19930;-71
2023/06/09 02:29:48;;;;;;;;;;;10.80;79.70;;;;;;4943591;28;20351;-71
2023/06/09 02:32:15;;;;;;;;;;;10.70;79.60;;;;;;4943028;28;19969;-71
2023/06/09 02:34:42;;;;;;;;;;;10.60;78.90;;;;;;4943614;28;19985;-70
2023/06/09 02:37:09;;;;;;;;;;;10.60;79.80;;;;;;4940925;28;20014;-70
2023/06/09 02:39:36;;;;;;;;;;;10.60;81.50;;;;;;4936996;28;20025;-71
2023/06/09 02:42:03;;;;;;;;;;;10.60;80.80;;;;;;4939759;28;20033;-71
2023/06/09 02:44:31;;;;;;;;;;;10.50;80.60;;;;;;4927656;29;20021;-70
2023/06/09 02:46:59;;;;;;;;;;;10.50;81.80;;;;;;4957185;28;19931;-71
2023/06/09 02:49:26;;;;;;;;;;;10.50;82.20;;;;;;4942532;28;20395;-71
2023/06/09 02:51:53;;;;;;;;;;;10.40;81.50;;;;;;4940876;28;20468;-71
2023/06/09 02:54:20;;;;;;;;;;;10.40;81.90;;;;;;4942715;28;19982;-70
2023/06/09 02:56:47;;;;;;;;;;;10.40;81.00;;;;;;4941962;28;19930;-71
2023/06/09 02:59:13;;;;;;;;;;;10.30;80.60;;;;;;4945556;28;20472;-71
2023/06/09 03:01:42;;;;;;;;;;;10.30;82.70;;;;;;4942595;28;19977;-71
2023/06/09 03:04:09;;;;;;;;;;;10.30;81.80;;;;;;4944327;28;19974;-71
2023/06/09 03:06:36;;;;;;;;;;;10.20;81.20;;;;;;4942430;28;19969;-71
2023/06/09 03:09:03;;;;;;;;;;;10.20;81.30;;;;;;4948136;28;20017;-71
2023/06/09 03:11:30;;;;;;;;;;;10.20;80.40;;;;;;4926315;29;19942;-70
2023/06/09 03:13:57;;;;;;;;;;;10.10;80.30;;;;;;4947070;28;19931;-71
2023/06/09 03:16:24;;;;;;;;;;;10.10;81.80;;;;;;4963312;28;19962;-71
2023/06/09 03:18:50;;;;;;;;;;;10.20;82.20;;;;;;4952170;28;19934;-71
2023/06/09 03:21:18;;;;;;;;;;;10.20;81.90;;;;;;4944874;28;20021;-71
2023/06/09 03:23:45;;;;;;;;;;;10.20;82.50;;;;;;4951038;28;20061;-70
2023/06/09 03:26:12;;;;;;;;;;;10.20;81.90;;;;;;4952102;28;19930;-70
2023/06/09 03:28:39;;;;;;;;;;;10.20;82.70;;;;;;4954902;28;20397;-71
2023/06/09 03:31:06;;;;;;;;;;;10.20;82.70;;;;;;4946275;28;20267;-71
2023/06/09 03:33:33;;;;;;;;;;;10.20;82.20;;;;;;4947105;28;19950;-71
2023/06/09 03:35:59;;;;;;;;;;;10.20;82.70;;;;;;4957397;28;20358;-70
2023/06/09 03:38:26;;;;;;;;;;;10.30;83.40;;;;;;4944966;28;20026;-70
2023/06/09 03:40:53;;;;;;;;;;;10.30;82.30;;;;;;4943645;28;19942;-70
2023/06/09 03:43:20;;;;;;;;;;;10.20;82.10;;;;;;4942332;28;20030;-71
2023/06/09 03:45:46;;;;;;;;;;;10.20;82.50;;;;;;4956835;28;19936;-70
2023/06/09 03:48:13;;;;;;;;;;;10.20;82.40;;;;;;4946123;28;20280;-70
2023/06/09 03:50:40;;;;;;;;;;;10.20;83.10;;;;;;4943484;28;20384;-70
2023/06/09 03:53:07;;;;;;;;;;;10.30;83.90;;;;;;4943285;28;19937;-71
2023/06/09 03:55:34;;;;;;;;;;;10.30;84.20;;;;;;4944326;28;20514;-70
2023/06/09 03:58:01;;;;;;;;;;;10.30;84.60;;;;;;4946543;28;20005;-70
2023/06/09 04:00:28;;;;;;;;;;;10.40;84.30;;;;;;4944165;28;20544;-70
2023/06/09 04:02:55;;;;;;;;;;;10.40;84.30;;;;;;4945078;28;20483;-70
2023/06/09 04:05:22;;;;;;;;;;;10.40;83.60;;;;;;4944990;28;20383;-70
2023/06/09 04:07:48;;;;;;;;;;;10.40;83.40;;;;;;4940749;28;20005;-70
2023/06/09 04:10:15;;;;;;;;;;;10.40;83.60;;;;;;4923559;28;19934;-70
2023/06/09 04:12:42;;;;;;;;;;;10.40;84.00;;;;;;4943547;28;20438;-70
2023/06/09 04:15:09;;;;;;;;;;;10.50;84.00;;;;;;4946189;28;19930;-70
2023/06/09 04:17:39;;;;;;;;;;;10.60;83.90;;;;;;4931392;29;20276;-70
2023/06/09 04:20:10;;;;;;;;;;;10.60;84.20;;;;;;4944707;28;19935;-71
2023/06/09 04:22:45;;;;;;;;;;;10.70;84.40;;;;;;4936935;28;20009;-71
2023/06/09 04:25:12;;;;;;;;;;;10.70;84.60;;;;;;4938825;28;20426;-71
2023/06/09 04:27:38;;;;;;;;;;;10.80;84.40;;;;;;4952296;28;20001;-70
2023/06/09 04:30:05;;;;;;;;;;;10.90;84.50;;;;;;4944412;28;19934;-71
2023/06/09 04:32:33;;;;;;;;;;;10.90;85.30;;;;;;4945005;28;19936;-71
2023/06/09 04:35:01;;;;;;;;;;;11.00;83.60;;;;;;4957969;28;19985;-70
2023/06/09 04:37:28;;;;;;;;;;;11.00;82.50;;;;;;4943845;28;19930;-70
2023/06/09 04:39:55;;;;;;;;;;;11.10;83.10;;;;;;4944091;28;19936;-70
2023/06/09 04:42:22;;;;;;;;;;;11.10;83.40;;;;;;4930185;29;19966;-71
2023/06/09 04:44:49;;;;;;;;;;;11.20;83.20;;;;;;4935395;28;19937;-71
2023/06/09 04:47:20;;;;;;;;;;;11.30;83.00;;;;;;4944697;28;19930;-70
2023/06/09 04:49:47;;;;;;;;;;;11.30;82.80;;;;;;4947242;28;19930;-72
2023/06/09 04:52:17;;;;;;;;;;;11.40;83.20;;;;;;4947092;28;19931;-72
2023/06/09 04:54:44;;;;;;;;;;;11.50;83.70;;;;;;4940908;28;19930;-73
2023/06/09 04:57:11;;;;;;;;;;;11.60;83.80;;;;;;4943044;28;20524;-73
2023/06/09 04:59:40;;;;;;;;;;;11.70;84.30;;;;;;4927346;29;20000;-70
2023/06/09 05:02:08;;;;;;;;;;;11.80;84.00;;;;;;4932455;29;19957;-70
2023/06/09 05:04:35;;;;;;;;;;;11.90;84.30;;;;;;4942662;28;19938;-73
2023/06/09 05:07:03;;;;;;;;;;;12.00;84.60;;;;;;4945402;28;19960;-71
2023/06/09 05:09:30;;;;;;;;;;;12.10;84.90;;;;;;4945807;28;20443;-74
2023/06/09 05:11:57;;;;;;;;;;;12.20;85.70;;;;;;4944573;28;20021;-72
2023/06/09 05:14:24;;;;;;;;;;;12.30;86.10;;;;;;4930460;29;19926;-72
2023/06/09 05:16:53;;;;;;;;;;;12.30;86.60;;;;;;4927171;28;19970;-72
2023/06/09 05:19:21;;;;;;;;;;;12.40;86.60;;;;;;4927779;29;19976;-73
2023/06/09 05:21:47;;;;;;;;;;;12.50;86.80;;;;;;4944950;28;20005;-74
2023/06/09 05:24:14;;;;;;;;;;;12.60;86.40;;;;;;4929158;29;20392;-73
2023/06/09 05:26:41;;;;;;;;;;;12.70;85.90;;;;;;4944681;28;19938;-72
2023/06/09 05:29:08;;;;;;;;;;;12.80;85.90;;;;;;4945548;28;19931;-72
2023/06/09 05:31:35;;;;;;;;;;;12.90;86.20;;;;;;4946061;28;21498;-73
2023/06/09 05:34:02;;;;;;;;;;;13.00;86.60;;;;;;4940984;28;20395;-70
2023/06/09 05:36:29;;;;;;;;;;;13.10;86.60;;;;;;4940735;28;19930;-70
2023/06/09 05:38:56;;;;;;;;;;;13.30;87.00;;;;;;4925532;28;19994;-70
2023/06/09 05:41:22;;;;;;;;;;;13.40;87.00;;;;;;4945586;28;19969;-70
2023/06/09 05:43:49;;;;;;;;;;;13.60;87.20;;;;;;4944394;28;20446;-70
2023/06/09 05:46:16;;;;;;;;;;;13.70;87.50;;;;;;4946362;28;20028;-69
2023/06/09 05:48:43;;;;;;;;;;;13.90;88.20;;;;;;4933777;28;19935;-70
2023/06/09 05:51:10;;;;;;;;;;;14.00;88.20;;;;;;4919986;29;19966;-70
2023/06/09 05:53:37;;;;;;;;;;;14.20;88.10;;;;;;4945562;28;19938;-70
2023/06/09 05:56:04;;;;;;;;;;;14.30;87.90;;;;;;4921600;29;20072;-70
2023/06/09 05:58:33;;;;;;;;;;;14.50;88.10;;;;;;4943047;28;19930;-70
2023/06/09 06:01:00;;;;;;;;;;;14.70;88.40;;;;;;4939845;28;19927;-70
2023/06/09 06:03:27;;;;;;;;;;;14.90;88.10;;;;;;4943693;28;19936;-70
2023/06/09 06:05:54;;;;;;;;;;;15.10;87.10;;;;;;4944540;28;20383;-70
2023/06/09 06:11:39;;;;;;;;;;;15.70;87.30;;;;;;4999609;28;19933;-76
2023/06/09 06:14:05;;;;;;;;;;;16.10;84.70;;;;;;5005263;28;19929;-77
2023/06/09 06:16:32;;;;;;;;;;;16.50;84.30;;;;;;5019878;28;20032;-76
2023/06/09 06:18:59;;;;;;;;;;;16.90;82.50;;;;;;4991309;28;19960;-76
2023/06/09 06:21:26;;;;;;;;;;;17.30;81.90;;;;;;5006340;28;19984;-76
2023/06/09 06:23:53;;;;;;;;;;;17.60;80.30;;;;;;5002750;28;20445;-76
2023/06/09 06:26:20;;;;;;;;;;;18.00;78.70;;;;;;5003166;28;19929;-76
2023/06/09 06:28:47;;;;;;;;;;;18.30;78.00;;;;;;5003355;28;19973;-76
2023/06/09 06:31:16;;;;;;;;;;;18.60;78.00;;;;;;5022337;28;20337;-77
2023/06/09 06:33:44;;;;;;;;;;;18.90;76.10;;;;;;5006363;28;19933;-76
2023/06/09 06:36:11;;;;;;;;;;;19.20;76.50;;;;;;5005165;28;19988;-77
2023/06/09 06:38:37;;;;;;;;;;;19.40;75.60;;;;;;5004889;28;19934;-77
2023/06/09 06:41:04;;;;;;;;;;;19.80;74.90;;;;;;5022656;28;20556;-76
2023/06/09 06:43:31;;;;;;;;;;;20.00;71.10;;;;;;5027324;28;20031;-77
2023/06/09 06:45:58;;;;;;;;;;;20.30;70.40;;;;;;5015013;28;20022;-77
2023/06/09 06:48:25;;;;;;;;;;;20.50;70.20;;;;;;5008920;28;19933;-77
2023/06/09 06:50:52;;;;;;;;;;;20.80;68.60;;;;;;5007523;28;19929;-77
2023/06/09 06:53:19;;;;;;;;;;;20.90;68.80;;;;;;5021132;28;19925;-77
2023/06/09 06:55:46;;;;;;;;;;;21.10;68.50;;;;;;5008356;28;19929;-76
2023/06/09 06:58:12;;;;;;;;;;;21.40;67.20;;;;;;5009287;28;20028;-77
2023/06/09 07:00:39;;;;;;;;;;;21.60;65.00;;;;;;5006758;28;19932;-77
2023/06/09 07:03:08;;;;;;;;;;;21.80;66.80;;;;;;5006315;28;19929;-77
2023/06/09 07:05:36;;;;;;;;;;;22.00;65.40;;;;;;5014838;28;19929;-77
2023/06/09 07:08:03;;;;;;;;;;;22.40;64.60;;;;;;5004997;28;19929;-76
2023/06/09 07:10:31;;;;;;;;;;;22.40;64.30;;;;;;5006948;28;19960;-77
2023/06/09 07:12:57;;;;;;;;;;;22.70;63.00;;;;;;5009146;28;19940;-77
2023/06/09 07:15:24;;;;;;;;;;;22.80;61.90;;;;;;5026375;28;19930;-77
2023/06/09 07:17:51;;;;;;;;;;;22.90;63.20;;;;;;5000535;28;19930;-76
2023/06/09 07:20:18;;;;;;;;;;;23.10;61.60;;;;;;5009577;28;19936;-77
2023/06/09 07:22:50;;;;;;;;;;;23.30;61.30;;;;;;5008952;28;19933;-77
2023/06/09 07:25:17;;;;;;;;;;;23.60;60.00;;;;;;5008504;28;19959;-77
2023/06/09 07:27:44;;;;;;;;;;;23.80;58.30;;;;;;5015946;28;19979;-77
2023/06/09 07:30:11;;;;;;;;;;;24.00;58.50;;;;;;5026025;28;19929;-77
2023/06/09 07:32:39;;;;;;;;;;;24.20;58.50;;;;;;5009164;28;19992;-77
2023/06/09 07:35:06;;;;;;;;;;;24.30;57.50;;;;;;5002918;28;19929;-77
2023/06/09 07:37:36;;;;;;;;;;;24.60;56.10;;;;;;4995865;28;19935;-77
2023/06/09 07:40:04;;;;;;;;;;;24.80;56.10;;;;;;5011631;28;19936;-78
2023/06/09 07:42:46;;;;;;;;;;;24.70;56.90;;;;;;5005559;28;20363;-77
2023/06/09 07:45:13;;;;;;;;;;;25.20;55.70;;;;;;5014749;28;19981;-77
2023/06/09 07:47:40;;;;;;;;;;;25.50;55.40;;;;;;5007474;28;20757;-77
2023/06/09 07:50:08;;;;;;;;;;;25.60;53.70;;;;;;5007830;28;20630;-77
2023/06/09 07:52:37;;;;;;;;;;;25.80;54.10;;;;;;5008585;28;19933;-77
2023/06/09 07:55:05;;;;;;;;;;;25.90;52.80;;;;;;5013597;28;20661;-77
2023/06/09 07:57:37;;;;;;;;;;;26.10;52.40;;;;;;5007834;28;19930;-77
2023/06/09 08:00:04;;;;;;;;;;;26.30;51.00;;;;;;5013604;28;20020;-77
2023/06/09 08:02:32;;;;;;;;;;;26.60;51.30;;;;;;5013904;28;20464;-77
2023/06/09 08:04:59;;;;;;;;;;;26.70;50.90;;;;;;5009302;28;19934;-77
2023/06/09 08:07:46;;;;;;;;;;;26.70;50.50;;;;;;5008478;28;19960;-78
2023/06/09 08:10:13;;;;;;;;;;;26.80;49.70;;;;;;5017114;28;19929;-77
2023/06/09 08:12:40;;;;;;;;;;;27.00;49.90;;;;;;5009201;28;20301;-77
2023/06/09 08:15:07;;;;;;;;;;;27.10;51.80;;;;;;5032152;28;19929;-77
2023/06/09 08:17:33;;;;;;;;;;;27.20;51.50;;;;;;5006395;28;19979;-77
2023/06/09 08:20:01;;;;;;;;;;;27.30;49.30;;;;;;5009690;28;20329;-77
2023/06/09 08:22:28;;;;;;;;;;;27.40;50.10;;;;;;5007968;28;20597;-77
2023/06/09 08:24:56;;;;;;;;;;;27.70;47.40;;;;;;5009056;28;19937;-77
2023/06/09 08:27:22;;;;;;;;;;;28.00;47.90;;;;;;4992623;28;20028;-77
2023/06/09 08:29:49;;;;;;;;;;;28.00;47.60;;;;;;5008467;28;20543;-77
2023/06/09 08:32:16;;;;;;;;;;;28.10;47.50;;;;;;5012523;28;20016;-77
2023/06/09 08:34:43;;;;;;;;;;;28.10;48.10;;;;;;5013417;28;19964;-77
2023/06/09 08:37:10;;;;;;;;;;;28.00;47.50;;;;;;5003159;28;19934;-77
2023/06/09 08:39:37;;;;;;;;;;;27.80;48.10;;;;;;5018530;28;19933;-77
2023/06/09 08:42:10;;;;;;;;;;;27.80;46.60;;;;;;5006985;28;20051;-77
2023/06/09 08:44:42;;;;;;;;;;;28.00;45.30;;;;;;4993644;28;19929;-77
2023/06/09 08:47:11;;;;;;;;;;;27.90;44.80;;;;;;5013901;28;20055;-77
2023/06/09 08:49:38;;;;;;;;;;;27.90;45.10;;;;;;5015516;28;21791;-77
2023/06/09 08:52:05;;;;;;;;;;;28.00;45.50;;;;;;5005926;28;20007;-77
2023/06/09 08:54:32;;;;;;;;;;;28.20;44.50;;;;;;5005860;28;20261;-77
2023/06/09 08:56:59;;;;;;;;;;;27.90;46.10;;;;;;5008617;28;19979;-77
2023/06/09 08:59:30;;;;;;;;;;;28.10;44.90;;;;;;5014180;28;19934;-77
2023/06/09 09:01:56;;;;;;;;;;;28.50;44.10;;;;;;5009223;28;19929;-77
2023/06/09 09:04:23;;;;;;;;;;;28.60;44.00;;;;;;5008067;28;20035;-77
2023/06/09 09:06:50;;;;;;;;;;;28.60;42.50;;;;;;5005205;28;20315;-77
2023/06/09 09:09:17;;;;;;;;;;;28.70;42.30;;;;;;5012640;28;20716;-77
2023/06/09 09:11:44;;;;;;;;;;;28.70;42.50;;;;;;5020826;28;19968;-78
2023/06/09 09:14:12;;;;;;;;;;;28.40;41.70;;;;;;5004276;28;20382;-77
2023/06/09 09:16:39;;;;;;;;;;;28.40;42.10;;;;;;5006465;28;19976;-77
2023/06/09 09:19:06;;;;;;;;;;;28.50;42.20;;;;;;5007562;28;19933;-77
2023/06/09 09:21:37;;;;;;;;;;;28.60;42.60;;;;;;5004149;28;19983;-77
2023/06/09 09:24:06;;;;;;;;;;;28.90;40.90;;;;;;5008636;28;19929;-77
2023/06/09 09:26:33;;;;;;;;;;;28.90;41.50;;;;;;5006342;28;20286;-77
2023/06/09 09:29:01;;;;;;;;;;;29.10;41.00;;;;;;5007432;28;20295;-77
2023/06/09 09:31:32;;;;;;;;;;;29.30;40.90;;;;;;5012636;28;19960;-77
2023/06/09 09:34:00;;;;;;;;;;;29.40;40.40;;;;;;5021641;28;20088;-77
2023/06/09 09:36:26;;;;;;;;;;;29.60;42.20;;;;;;5007577;28;19992;-77
2023/06/09 09:39:00;;;;;;;;;;;29.60;40.40;;;;;;5006986;28;19930;-77
2023/06/09 09:41:27;;;;;;;;;;;29.80;41.00;;;;;;5006815;28;19929;-77
2023/06/09 09:43:56;;;;;;;;;;;29.70;41.50;;;;;;5011034;28;19933;-77
2023/06/09 09:46:23;;;;;;;;;;;29.90;41.70;;;;;;5008463;28;20020;-77
2023/06/09 09:48:50;;;;;;;;;;;30.00;40.30;;;;;;4995312;28;20012;-77
2023/06/09 09:51:20;;;;;;;;;;;29.70;41.70;;;;;;5001611;28;19929;-77
2023/06/09 09:53:47;;;;;;;;;;;29.40;40.80;;;;;;5021949;28;19929;-77
2023/06/09 09:56:14;;;;;;;;;;;29.70;41.30;;;;;;4997006;28;20401;-77
2023/06/09 09:58:42;;;;;;;;;;;30.10;40.80;;;;;;5006644;28;19969;-77
2023/06/09 10:01:10;;;;;;;;;;;30.20;40.40;;;;;;5004473;28;20368;-77
2023/06/09 10:03:37;;;;;;;;;;;30.10;41.10;;;;;;5006043;28;19960;-77
2023/06/09 10:06:07;;;;;;;;;;;30.20;41.80;;;;;;5000723;28;19926;-77
2023/06/09 10:08:34;;;;;;;;;;;30.30;41.10;;;;;;5003862;28;19929;-78
2023/06/09 10:11:01;;;;;;;;;;;30.30;39.20;;;;;;5006735;28;20728;-77
2023/06/09 10:13:28;;;;;;;;;;;30.30;39.50;;;;;;5006539;28;20020;-77
2023/06/09 10:15:55;;;;;;;;;;;30.10;40.00;;;;;;5004490;28;20004;-77
2023/06/09 10:18:22;;;;;;;;;;;30.30;39.20;;;;;;5005230;28;19965;-77
2023/06/09 10:20:51;;;;;;;;;;;30.50;38.90;;;;;;5010606;28;19933;-77
2023/06/09 10:23:18;;;;;;;;;;;30.60;39.90;;;;;;5009932;28;19929;-77
2023/06/09 10:25:48;;;;;;;;;;;30.50;39.30;;;;;;5009423;28;20625;-77
2023/06/09 10:28:16;;;;;;;;;;;30.50;38.80;;;;;;5010389;28;19929;-77
2023/06/09 10:30:44;;;;;;;;;;;30.80;40.30;;;;;;5008874;28;20405;-77
2023/06/09 10:33:16;;;;;;;;;;;30.60;39.70;;;;;;5032896;28;19929;-77
2023/06/09 10:35:46;;;;;;;;;;;30.60;38.50;;;;;;5011893;28;19930;-78
2023/06/09 10:41:17;;;;;;;;;;;30.50;38.90;;;;;;4993803;28;20302;-77
2023/06/09 10:44:03;;;;;;;;;;;30.60;40.50;;;;;;4989676;28;19929;-77
2023/06/09 10:46:46;;;;;;;;;;;31.00;38.90;;;;;;4988911;28;19940;-77
2023/06/09 10:49:25;;;;;;;;;;;31.20;37.50;;;;;;4983812;28;19936;-77
2023/06/09 10:51:53;;;;;;;;;;;31.00;37.60;;;;;;4990561;28;19980;-77
2023/06/09 10:57:36;;;;;;;;;;;31.00;37.40;;;;;;5009128;28;19936;-77
2023/06/09 11:00:10;;;;;;;;;;;30.70;37.40;;;;;;4991776;28;20002;-77
2023/06/09 11:02:37;;;;;;;;;;;31.00;37.70;;;;;;4996650;28;19925;-72
2023/06/09 11:05:04;;;;;;;;;;;31.00;38.60;;;;;;5007744;28;19926;-71
2023/06/09 11:07:59;;;;;;;;;;;31.00;38.60;;;;;;4989285;28;20414;-71
2023/06/09 11:10:26;;;;;;;;;;;30.70;37.80;;;;;;4999895;28;19961;-71
2023/06/09 11:12:56;;;;;;;;;;;30.90;38.50;;;;;;4985671;28;19936;-70
2023/06/09 11:15:23;;;;;;;;;;;31.10;39.40;;;;;;5005873;28;19929;-70
2023/06/09 11:17:52;;;;;;;;;;;31.10;39.50;;;;;;5005261;28;19930;-70
2023/06/09 11:20:23;;;;;;;;;;;31.40;39.70;;;;;;5007935;28;20396;-71
2023/06/09 11:22:51;;;;;;;;;;;31.30;38.80;;;;;;4987575;28;19929;-71
2023/06/09 11:25:18;;;;;;;;;;;31.40;37.60;;;;;;4988606;28;20652;-71
2023/06/09 11:27:46;;;;;;;;;;;31.40;38.20;;;;;;5005880;28;20405;-71
2023/06/09 11:30:20;;;;;;;;;;;31.60;37.40;;;;;;5006859;28;20449;-71
2023/06/09 11:32:48;;;;;;;;;;;31.70;38.10;;;;;;5006593;28;20469;-70
2023/06/09 11:35:28;;;;;;;;;;;31.90;38.20;;;;;;4988628;28;19929;-70
2023/06/09 11:37:59;;;;;;;;;;;31.90;39.00;;;;;;5004233;28;19934;-71
2023/06/09 11:40:26;;;;;;;;;;;31.90;39.30;;;;;;5019840;28;19932;-70
2023/06/09 11:42:54;;;;;;;;;;;32.00;38.70;;;;;;5006544;28;19929;-71
2023/06/09 11:45:24;;;;;;;;;;;31.90;38.70;;;;;;5004520;28;19934;-71
2023/06/09 11:47:56;;;;;;;;;;;31.90;38.30;;;;;;5000697;28;20370;-71
2023/06/09 11:50:28;;;;;;;;;;;32.10;37.80;;;;;;5007068;28;20011;-70
2023/06/09 11:53:02;;;;;;;;;;;31.90;37.80;;;;;;4993839;28;19976;-70
2023/06/09 11:55:29;;;;;;;;;;;32.10;38.10;;;;;;4984738;28;20259;-71
2023/06/09 11:57:56;;;;;;;;;;;32.30;37.00;;;;;;4984686;28;20575;-73
2023/06/09 12:00:30;;;;;;;;;;;31.70;36.80;;;;;;4990577;28;20058;-70
2023/06/09 12:02:57;;;;;;;;;;;31.50;38.00;;;;;;4988814;28;19969;-70
2023/06/09 12:05:28;;;;;;;;;;;31.40;39.70;;;;;;5001488;28;19929;-70
2023/06/09 12:07:55;;;;;;;;;;;31.60;39.50;;;;;;4986975;28;20626;-70
2023/06/09 12:10:24;;;;;;;;;;;31.50;38.50;;;;;;4986122;28;19936;-70
2023/06/09 12:12:52;;;;;;;;;;;31.50;38.40;;;;;;4991131;28;20387;-70
2023/06/09 12:15:20;;;;;;;;;;;31.70;38.30;;;;;;4986818;28;19973;-70
2023/06/09 12:17:48;;;;;;;;;;;31.90;37.30;;;;;;4993292;28;20789;-70
2023/06/09 12:20:22;;;;;;;;;;;31.60;38.40;;;;;;4986160;28;19933;-70
2023/06/09 12:22:49;;;;;;;;;;;31.40;38.00;;;;;;5014368;28;19936;-70
2023/06/09 12:25:28;;;;;;;;;;;31.10;38.30;;;;;;4987267;28;19933;-70
2023/06/09 12:27:56;;;;;;;;;;;30.70;38.60;;;;;;5002841;28;19937;-70
2023/06/09 12:30:31;;;;;;;;;;;30.30;40.50;;;;;;4988959;28;20004;-70
2023/06/09 12:33:03;;;;;;;;;;;30.30;41.50;;;;;;4987783;28;19988;-69
2023/06/09 12:35:36;;;;;;;;;;;30.60;42.20;;;;;;4986065;28;20646;-70
2023/06/09 12:38:29;;;;;;;;;;;30.60;41.50;;;;;;4985746;28;20016;-70
2023/06/09 12:41:02;;;;;;;;;;;30.80;41.80;;;;;;4984085;28;19930;-69
2023/06/09 12:43:42;;;;;;;;;;;30.70;40.50;;;;;;5016569;28;19930;-69
2023/06/09 12:46:09;;;;;;;;;;;30.70;41.60;;;;;;4980282;28;20012;-69
2023/06/09 12:48:54;;;;;;;;;;;30.60;42.30;;;;;;4987393;28;19930;-70
2023/06/09 12:51:21;;;;;;;;;;;30.50;42.80;;;;;;4989140;28;20370;-73
2023/06/09 12:53:50;;;;;;;;;;;30.20;42.00;;;;;;4980948;28;19930;-75
2023/06/09 12:56:18;;;;;;;;;;;30.00;43.80;;;;;;5023099;28;20382;-74
2023/06/09 12:58:45;;;;;;;;;;;30.10;43.50;;;;;;5014357;28;19933;-74
2023/06/09 13:01:12;;;;;;;;;;;30.20;44.10;;;;;;5006981;28;19983;-73
2023/06/09 13:03:39;;;;;;;;;;;30.20;42.20;;;;;;5005920;28;20596;-70
2023/06/09 13:06:06;;;;;;;;;;;29.60;46.00;;;;;;5003363;28;19929;-71
2023/06/09 13:08:33;;;;;;;;;;;29.40;47.80;;;;;;5012437;28;20012;-75
2023/06/09 13:11:00;;;;;;;;;;;29.20;45.40;;;;;;4988224;28;19979;-73
2023/06/09 13:13:27;;;;;;;;;;;29.10;46.40;;;;;;4987724;28;20028;-73
2023/06/09 13:15:57;;;;;;;;;;;29.00;45.70;;;;;;5006159;28;19972;-72
2023/06/09 13:18:24;;;;;;;;;;;28.90;46.30;;;;;;5010891;28;19929;-72
2023/06/09 13:20:51;;;;;;;;;;;29.10;45.90;;;;;;4990230;28;19941;-74
2023/06/09 13:23:18;;;;;;;;;;;28.90;46.10;;;;;;4987495;28;19942;-73
2023/06/09 13:25:45;;;;;;;;;;;29.00;45.20;;;;;;4989466;28;20468;-73
2023/06/09 13:28:14;;;;;;;;;;;28.90;45.60;;;;;;5017682;28;19991;-72
2023/06/09 13:30:41;;;;;;;;;;;28.80;45.10;;;;;;5006273;28;20017;-73
2023/06/09 13:33:08;;;;;;;;;;;28.90;45.60;;;;;;4995471;28;19964;-72
2023/06/09 13:35:35;;;;;;;;;;;28.90;45.30;;;;;;5010074;28;19929;-72
2023/06/09 13:38:03;;;;;;;;;;;29.00;45.00;;;;;;5020629;28;20405;-72
2023/06/09 13:40:30;;;;;;;;;;;29.10;44.10;;;;;;4990655;28;19933;-73
2023/06/09 13:42:57;;;;;;;;;;;28.90;44.30;;;;;;5002993;28;20016;-73
2023/06/09 13:45:25;;;;;;;;;;;29.00;44.10;;;;;;4995280;28;20083;-71
2023/06/09 13:47:54;;;;;;;;;;;29.00;44.70;;;;;;5002769;28;19936;-73
2023/06/09 13:50:26;;;;;;;;;;;29.00;44.10;;;;;;5004715;28;19929;-71
2023/06/09 13:52:53;;;;;;;;;;;29.00;43.10;;;;;;5003934;28;19929;-73
2023/06/09 13:55:20;;;;;;;;;;;28.90;43.30;;;;;;5005724;28;19929;-73
2023/06/09 13:57:47;;;;;;;;;;;28.40;45.00;;;;;;4987584;28;21459;-71
2023/06/09 14:00:14;;;;;;;;;;;28.60;45.10;;;;;;5003009;28;19936;-73
2023/06/09 14:02:42;;;;;;;;;;;28.50;44.50;;;;;;5001389;28;20533;-72
2023/06/09 14:05:10;;;;;;;;;;;28.30;44.70;;;;;;5002148;28;19929;-72
2023/06/09 14:07:37;;;;;;;;;;;28.10;43.90;;;;;;5001257;28;20029;-72
2023/06/09 14:10:05;;;;;;;;;;;28.00;44.80;;;;;;5003253;28;19937;-72
2023/06/09 14:12:32;;;;;;;;;;;28.20;44.50;;;;;;4986281;28;19981;-72
2023/06/09 14:14:59;;;;;;;;;;;28.40;43.60;;;;;;4984274;28;19929;-71
2023/06/09 14:17:28;;;;;;;;;;;28.40;43.80;;;;;;5003892;28;20686;-72
2023/06/09 14:19:55;;;;;;;;;;;28.10;44.00;;;;;;4987851;28;20008;-72
2023/06/09 14:22:22;;;;;;;;;;;28.00;44.90;;;;;;5004038;28;19936;-72
2023/06/09 14:24:49;;;;;;;;;;;28.00;43.70;;;;;;5004301;28;19934;-72
2023/06/09 14:27:16;;;;;;;;;;;28.00;43.20;;;;;;5002004;28;19940;-72
2023/06/09 14:29:42;;;;;;;;;;;28.20;42.50;;;;;;5003009;28;20608;-72
2023/06/09 14:32:09;;;;;;;;;;;28.50;42.50;;;;;;5013788;28;19961;-72